sensor_id;sensor_type;location;lat;lon;timestamp;P1;durP1;ratioP1;P2;durP2;ratioP2
5125;SDS011;2581;53.112;8.896;2022-08-18T00:01:07;13.40;;;10.77;;
5125;SDS011;2581;53.112;8.896;2022-08-18T00:03:34;10.37;;;9.50;;
5125;SDS011;2581;53.112;8.896;2022-08-18T00:06:00;10.40;;;9.40;;
5125;SDS011;2581;53.112;8.896;2022-08-18T00:08:26;10.57;;;9.73;;
5125;SDS011;2581;53.112;8.896;2022-08-18T00:10:53;11.60;;;10.50;;
5125;SDS011;2581;53.112;8.896;2022-08-18T00:13:34;10.00;;;9.20;;
5125;SDS011;2581;53.112;8.896;2022-08-18T00:16:06;10.70;;;9.70;;
5125;SDS011;2581;53.112;8.896;2022-08-18T00:18:31;12.17;;;10.97;;
5125;SDS011;2581;53.112;8.896;2022-08-18T00:20:57;10.23;;;9.33;;
5125;SDS011;2581;53.112;8.896;2022-08-18T00:23:23;10.77;;;9.67;;
5125;SDS011;2581;53.112;8.896;2022-08-18T00:25:48;10.70;;;9.80;;
5125;SDS011;2581;53.112;8.896;2022-08-18T00:28:14;12.80;;;11.50;;
5125;SDS011;2581;53.112;8.896;2022-08-18T00:30:40;10.50;;;9.60;;
5125;SDS011;2581;53.112;8.896;2022-08-18T00:33:05;10.90;;;10.00;;
5125;SDS011;2581;53.112;8.896;2022-08-18T00:35:34;11.03;;;9.93;;
5125;SDS011;2581;53.112;8.896;2022-08-18T00:38:02;12.77;;;11.57;;
5125;SDS011;2581;53.112;8.896;2022-08-18T00:40:31;11.73;;;10.70;;
5125;SDS011;2581;53.112;8.896;2022-08-18T00:43:07;12.97;;;11.10;;
5125;SDS011;2581;53.112;8.896;2022-08-18T00:45:39;11.80;;;10.80;;
5125;SDS011;2581;53.112;8.896;2022-08-18T00:48:07;12.60;;;11.30;;
5125;SDS011;2581;53.112;8.896;2022-08-18T00:55:50;12.53;;;11.33;;
5125;SDS011;2581;53.112;8.896;2022-08-18T00:58:24;14.67;;;11.90;;
5125;SDS011;2581;53.112;8.896;2022-08-18T01:00:54;12.00;;;10.73;;
5125;SDS011;2581;53.112;8.896;2022-08-18T01:03:20;12.47;;;11.20;;
5125;SDS011;2581;53.112;8.896;2022-08-18T01:06:11;12.47;;;11.37;;
5125;SDS011;2581;53.112;8.896;2022-08-18T01:08:41;11.57;;;10.57;;
5125;SDS011;2581;53.112;8.896;2022-08-18T01:11:08;12.70;;;11.40;;
5125;SDS011;2581;53.112;8.896;2022-08-18T01:13:34;10.57;;;9.67;;
5125;SDS011;2581;53.112;8.896;2022-08-18T01:16:02;11.67;;;10.37;;
5125;SDS011;2581;53.112;8.896;2022-08-18T01:18:48;12.13;;;10.93;;
5125;SDS011;2581;53.112;8.896;2022-08-18T01:21:33;12.07;;;10.97;;
5125;SDS011;2581;53.112;8.896;2022-08-18T01:24:15;11.03;;;10.03;;
5125;SDS011;2581;53.112;8.896;2022-08-18T01:26:43;12.43;;;11.17;;
5125;SDS011;2581;53.112;8.896;2022-08-18T01:29:14;10.97;;;10.00;;
5125;SDS011;2581;53.112;8.896;2022-08-18T01:31:43;11.87;;;10.60;;
5125;SDS011;2581;53.112;8.896;2022-08-18T01:34:18;12.77;;;10.80;;
5125;SDS011;2581;53.112;8.896;2022-08-18T01:36:46;11.07;;;10.10;;
5125;SDS011;2581;53.112;8.896;2022-08-18T01:39:12;10.90;;;9.87;;
5125;SDS011;2581;53.112;8.896;2022-08-18T01:41:38;11.70;;;10.50;;
5125;SDS011;2581;53.112;8.896;2022-08-18T01:44:04;11.40;;;10.17;;
5125;SDS011;2581;53.112;8.896;2022-08-18T01:46:33;11.60;;;10.03;;
5125;SDS011;2581;53.112;8.896;2022-08-18T01:48:59;10.80;;;9.73;;
5125;SDS011;2581;53.112;8.896;2022-08-18T01:51:28;10.77;;;9.77;;
5125;SDS011;2581;53.112;8.896;2022-08-18T01:53:56;11.97;;;10.33;;
5125;SDS011;2581;53.112;8.896;2022-08-18T01:56:23;11.43;;;9.77;;
5125;SDS011;2581;53.112;8.896;2022-08-18T01:58:50;13.90;;;11.43;;
5125;SDS011;2581;53.112;8.896;2022-08-18T02:01:17;14.13;;;12.73;;
5125;SDS011;2581;53.112;8.896;2022-08-18T02:03:45;14.90;;;13.47;;
5125;SDS011;2581;53.112;8.896;2022-08-18T02:06:16;15.27;;;13.77;;
5125;SDS011;2581;53.112;8.896;2022-08-18T02:08:43;14.60;;;13.00;;
5125;SDS011;2581;53.112;8.896;2022-08-18T02:11:09;16.23;;;14.00;;
5125;SDS011;2581;53.112;8.896;2022-08-18T02:13:36;27.63;;;22.77;;
5125;SDS011;2581;53.112;8.896;2022-08-18T02:16:01;31.63;;;24.70;;
5125;SDS011;2581;53.112;8.896;2022-08-18T02:18:29;37.37;;;27.87;;
5125;SDS011;2581;53.112;8.896;2022-08-18T02:20:57;35.97;;;27.20;;
5125;SDS011;2581;53.112;8.896;2022-08-18T02:23:29;34.27;;;27.10;;
5125;SDS011;2581;53.112;8.896;2022-08-18T02:25:55;34.70;;;26.13;;
5125;SDS011;2581;53.112;8.896;2022-08-18T02:28:20;42.40;;;30.83;;
5125;SDS011;2581;53.112;8.896;2022-08-18T02:30:46;45.13;;;30.50;;
5125;SDS011;2581;53.112;8.896;2022-08-18T02:33:12;47.70;;;29.40;;
5125;SDS011;2581;53.112;8.896;2022-08-18T02:35:38;45.50;;;31.50;;
5125;SDS011;2581;53.112;8.896;2022-08-18T02:38:05;46.47;;;30.47;;
5125;SDS011;2581;53.112;8.896;2022-08-18T02:40:32;44.83;;;29.60;;
5125;SDS011;2581;53.112;8.896;2022-08-18T02:43:04;46.10;;;28.93;;
5125;SDS011;2581;53.112;8.896;2022-08-18T02:45:33;46.23;;;29.23;;
5125;SDS011;2581;53.112;8.896;2022-08-18T02:47:59;47.00;;;30.57;;
5125;SDS011;2581;53.112;8.896;2022-08-18T02:50:25;45.43;;;29.50;;
5125;SDS011;2581;53.112;8.896;2022-08-18T02:52:51;45.50;;;29.30;;
5125;SDS011;2581;53.112;8.896;2022-08-18T02:55:16;48.20;;;28.47;;
5125;SDS011;2581;53.112;8.896;2022-08-18T02:57:43;40.70;;;27.63;;
5125;SDS011;2581;53.112;8.896;2022-08-18T03:00:12;38.03;;;25.70;;
5125;SDS011;2581;53.112;8.896;2022-08-18T03:02:44;43.87;;;25.77;;
5125;SDS011;2581;53.112;8.896;2022-08-18T03:05:11;39.63;;;27.17;;
5125;SDS011;2581;53.112;8.896;2022-08-18T03:07:37;41.60;;;26.40;;
5125;SDS011;2581;53.112;8.896;2022-08-18T03:10:02;37.67;;;24.33;;
5125;SDS011;2581;53.112;8.896;2022-08-18T03:12:28;39.10;;;25.50;;
5125;SDS011;2581;53.112;8.896;2022-08-18T03:14:54;35.57;;;23.10;;
5125;SDS011;2581;53.112;8.896;2022-08-18T03:17:20;39.47;;;23.93;;
5125;SDS011;2581;53.112;8.896;2022-08-18T03:19:45;31.63;;;21.87;;
5125;SDS011;2581;53.112;8.896;2022-08-18T03:22:11;39.50;;;24.47;;
5125;SDS011;2581;53.112;8.896;2022-08-18T03:24:38;32.10;;;22.07;;
5125;SDS011;2581;53.112;8.896;2022-08-18T03:27:04;33.17;;;20.83;;
5125;SDS011;2581;53.112;8.896;2022-08-18T03:29:31;29.70;;;21.50;;
5125;SDS011;2581;53.112;8.896;2022-08-18T03:32:02;36.87;;;22.80;;
5125;SDS011;2581;53.112;8.896;2022-08-18T03:34:29;37.73;;;22.97;;
5125;SDS011;2581;53.112;8.896;2022-08-18T03:36:56;29.90;;;21.77;;
5125;SDS011;2581;53.112;8.896;2022-08-18T03:39:22;29.13;;;20.50;;
5125;SDS011;2581;53.112;8.896;2022-08-18T03:41:49;28.83;;;20.60;;
5125;SDS011;2581;53.112;8.896;2022-08-18T03:44:19;26.00;;;19.40;;
5125;SDS011;2581;53.112;8.896;2022-08-18T03:46:45;27.60;;;20.20;;
5125;SDS011;2581;53.112;8.896;2022-08-18T03:49:11;28.37;;;19.50;;
5125;SDS011;2581;53.112;8.896;2022-08-18T03:51:39;28.23;;;18.60;;
5125;SDS011;2581;53.112;8.896;2022-08-18T03:54:10;24.33;;;17.93;;
5125;SDS011;2581;53.112;8.896;2022-08-18T03:56:37;25.40;;;18.40;;
5125;SDS011;2581;53.112;8.896;2022-08-18T03:59:09;27.73;;;18.77;;
5125;SDS011;2581;53.112;8.896;2022-08-18T04:01:41;31.13;;;17.50;;
5125;SDS011;2581;53.112;8.896;2022-08-18T04:04:08;22.97;;;16.50;;
5125;SDS011;2581;53.112;8.896;2022-08-18T04:06:37;22.33;;;17.23;;
5125;SDS011;2581;53.112;8.896;2022-08-18T04:09:08;22.00;;;16.80;;
5125;SDS011;2581;53.112;8.896;2022-08-18T04:11:36;20.73;;;17.13;;
5125;SDS011;2581;53.112;8.896;2022-08-18T04:14:04;27.20;;;18.47;;
5125;SDS011;2581;53.112;8.896;2022-08-18T04:16:30;25.73;;;19.60;;
5125;SDS011;2581;53.112;8.896;2022-08-18T04:18:57;22.00;;;16.77;;
5125;SDS011;2581;53.112;8.896;2022-08-18T04:21:30;19.30;;;15.33;;
5125;SDS011;2581;53.112;8.896;2022-08-18T04:23:57;20.23;;;17.07;;
5125;SDS011;2581;53.112;8.896;2022-08-18T04:26:29;20.17;;;15.97;;
5125;SDS011;2581;53.112;8.896;2022-08-18T04:28:56;23.20;;;18.50;;
5125;SDS011;2581;53.112;8.896;2022-08-18T04:31:24;19.47;;;16.70;;
5125;SDS011;2581;53.112;8.896;2022-08-18T04:33:51;22.90;;;16.50;;
5125;SDS011;2581;53.112;8.896;2022-08-18T04:36:16;21.33;;;16.80;;
5125;SDS011;2581;53.112;8.896;2022-08-18T04:38:42;18.87;;;16.03;;
5125;SDS011;2581;53.112;8.896;2022-08-18T04:41:09;20.27;;;16.13;;
5125;SDS011;2581;53.112;8.896;2022-08-18T04:43:36;20.50;;;15.40;;
5125;SDS011;2581;53.112;8.896;2022-08-18T04:46:02;27.40;;;17.10;;
5125;SDS011;2581;53.112;8.896;2022-08-18T04:48:31;18.23;;;14.70;;
5125;SDS011;2581;53.112;8.896;2022-08-18T04:51:12;22.80;;;15.60;;
5125;SDS011;2581;53.112;8.896;2022-08-18T04:53:40;22.30;;;15.40;;
5125;SDS011;2581;53.112;8.896;2022-08-18T04:56:13;23.50;;;16.93;;
5125;SDS011;2581;53.112;8.896;2022-08-18T04:58:57;23.63;;;16.90;;
5125;SDS011;2581;53.112;8.896;2022-08-18T05:01:26;24.43;;;18.00;;
5125;SDS011;2581;53.112;8.896;2022-08-18T05:03:54;22.10;;;18.17;;
5125;SDS011;2581;53.112;8.896;2022-08-18T05:06:21;28.93;;;21.30;;
5125;SDS011;2581;53.112;8.896;2022-08-18T05:08:51;28.50;;;20.93;;
5125;SDS011;2581;53.112;8.896;2022-08-18T05:11:18;34.83;;;22.10;;
5125;SDS011;2581;53.112;8.896;2022-08-18T05:13:46;24.43;;;18.50;;
5125;SDS011;2581;53.112;8.896;2022-08-18T05:16:12;25.40;;;20.00;;
5125;SDS011;2581;53.112;8.896;2022-08-18T05:18:38;27.97;;;19.40;;
5125;SDS011;2581;53.112;8.896;2022-08-18T05:21:04;30.53;;;21.67;;
5125;SDS011;2581;53.112;8.896;2022-08-18T05:23:31;26.27;;;18.90;;
5125;SDS011;2581;53.112;8.896;2022-08-18T05:25:57;32.73;;;20.17;;
5125;SDS011;2581;53.112;8.896;2022-08-18T05:28:24;32.47;;;20.00;;
5125;SDS011;2581;53.112;8.896;2022-08-18T05:30:50;29.67;;;20.20;;
5125;SDS011;2581;53.112;8.896;2022-08-18T05:33:15;31.47;;;19.23;;
5125;SDS011;2581;53.112;8.896;2022-08-18T05:35:43;24.97;;;20.10;;
5125;SDS011;2581;53.112;8.896;2022-08-18T05:38:24;32.10;;;19.50;;
5125;SDS011;2581;53.112;8.896;2022-08-18T05:41:00;26.30;;;18.73;;
5125;SDS011;2581;53.112;8.896;2022-08-18T05:43:31;23.87;;;15.80;;
5125;SDS011;2581;53.112;8.896;2022-08-18T05:45:58;29.07;;;19.00;;
5125;SDS011;2581;53.112;8.896;2022-08-18T05:48:26;28.43;;;16.87;;
5125;SDS011;2581;53.112;8.896;2022-08-18T05:50:52;26.40;;;16.53;;
5125;SDS011;2581;53.112;8.896;2022-08-18T05:53:20;22.00;;;15.30;;
5125;SDS011;2581;53.112;8.896;2022-08-18T05:56:06;18.73;;;13.53;;
5125;SDS011;2581;53.112;8.896;2022-08-18T05:58:53;19.53;;;15.17;;
5125;SDS011;2581;53.112;8.896;2022-08-18T06:01:26;18.23;;;15.30;;
5125;SDS011;2581;53.112;8.896;2022-08-18T06:03:59;28.00;;;14.03;;
5125;SDS011;2581;53.112;8.896;2022-08-18T06:06:31;20.13;;;13.50;;
5125;SDS011;2581;53.112;8.896;2022-08-18T06:09:18;24.03;;;14.70;;
5125;SDS011;2581;53.112;8.896;2022-08-18T06:11:52;21.67;;;16.37;;
5125;SDS011;2581;53.112;8.896;2022-08-18T06:14:23;20.40;;;14.97;;
5125;SDS011;2581;53.112;8.896;2022-08-18T06:25:09;19.70;;;13.50;;
5125;SDS011;2581;53.112;8.896;2022-08-18T06:30:26;25.63;;;13.20;;
5125;SDS011;2581;53.112;8.896;2022-08-18T06:33:26;17.43;;;13.17;;
5125;SDS011;2581;53.112;8.896;2022-08-18T06:36:18;18.17;;;12.43;;
5125;SDS011;2581;53.112;8.896;2022-08-18T06:39:08;25.20;;;13.53;;
5125;SDS011;2581;53.112;8.896;2022-08-18T06:41:44;21.20;;;13.53;;
5125;SDS011;2581;53.112;8.896;2022-08-18T06:44:20;23.43;;;13.17;;
5125;SDS011;2581;53.112;8.896;2022-08-18T06:57:52;18.93;;;10.60;;
5125;SDS011;2581;53.112;8.896;2022-08-18T07:02:57;19.87;;;11.20;;
5125;SDS011;2581;53.112;8.896;2022-08-18T07:05:32;20.90;;;11.10;;
5125;SDS011;2581;53.112;8.896;2022-08-18T07:08:10;16.53;;;11.40;;
5125;SDS011;2581;53.112;8.896;2022-08-18T07:10:54;17.80;;;10.80;;
5125;SDS011;2581;53.112;8.896;2022-08-18T07:13:36;23.57;;;12.10;;
5125;SDS011;2581;53.112;8.896;2022-08-18T07:19:08;24.60;;;10.90;;
5125;SDS011;2581;53.112;8.896;2022-08-18T07:21:45;19.30;;;11.87;;
5125;SDS011;2581;53.112;8.896;2022-08-18T07:24:31;16.40;;;11.73;;
5125;SDS011;2581;53.112;8.896;2022-08-18T07:27:04;21.33;;;13.57;;
5125;SDS011;2581;53.112;8.896;2022-08-18T07:29:37;24.07;;;14.93;;
5125;SDS011;2581;53.112;8.896;2022-08-18T07:32:14;27.37;;;17.87;;
5125;SDS011;2581;53.112;8.896;2022-08-18T07:34:45;24.93;;;15.30;;
5125;SDS011;2581;53.112;8.896;2022-08-18T07:37:17;24.10;;;13.87;;
5125;SDS011;2581;53.112;8.896;2022-08-18T07:39:54;18.90;;;12.47;;
5125;SDS011;2581;53.112;8.896;2022-08-18T07:45:11;19.63;;;11.70;;
5125;SDS011;2581;53.112;8.896;2022-08-18T07:48:06;23.20;;;14.63;;
5125;SDS011;2581;53.112;8.896;2022-08-18T07:50:44;21.20;;;12.60;;
5125;SDS011;2581;53.112;8.896;2022-08-18T07:56:42;17.43;;;12.70;;
5125;SDS011;2581;53.112;8.896;2022-08-18T08:05:04;16.60;;;13.10;;
5125;SDS011;2581;53.112;8.896;2022-08-18T08:07:39;23.00;;;14.03;;
5125;SDS011;2581;53.112;8.896;2022-08-18T08:10:20;16.37;;;10.90;;
5125;SDS011;2581;53.112;8.896;2022-08-18T08:13:02;16.93;;;12.73;;
5125;SDS011;2581;53.112;8.896;2022-08-18T08:20:50;26.93;;;20.07;;
5125;SDS011;2581;53.112;8.896;2022-08-18T08:23:29;36.80;;;25.37;;
5125;SDS011;2581;53.112;8.896;2022-08-18T08:29:02;32.10;;;22.40;;
5125;SDS011;2581;53.112;8.896;2022-08-18T08:31:44;30.90;;;19.47;;
5125;SDS011;2581;53.112;8.896;2022-08-18T08:35:10;33.13;;;20.20;;
5125;SDS011;2581;53.112;8.896;2022-08-18T08:37:19;21.03;;;16.53;;
5125;SDS011;2581;53.112;8.896;2022-08-18T08:45:35;23.60;;;15.00;;
5125;SDS011;2581;53.112;8.896;2022-08-18T08:50:40;19.23;;;16.20;;
5125;SDS011;2581;53.112;8.896;2022-08-18T08:55:43;21.63;;;15.40;;
5125;SDS011;2581;53.112;8.896;2022-08-18T08:58:20;25.93;;;17.40;;
5125;SDS011;2581;53.112;8.896;2022-08-18T09:01:09;21.33;;;16.07;;
5125;SDS011;2581;53.112;8.896;2022-08-18T09:19:28;25.53;;;15.00;;
5125;SDS011;2581;53.112;8.896;2022-08-18T09:22:03;18.73;;;13.60;;
5125;SDS011;2581;53.112;8.896;2022-08-18T09:24:46;24.50;;;17.80;;
5125;SDS011;2581;53.112;8.896;2022-08-18T09:30:07;16.03;;;14.03;;
5125;SDS011;2581;53.112;8.896;2022-08-18T09:38:54;13.90;;;12.33;;
5125;SDS011;2581;53.112;8.896;2022-08-18T09:41:50;19.70;;;11.00;;
5125;SDS011;2581;53.112;8.896;2022-08-18T09:49:52;13.10;;;9.70;;
5125;SDS011;2581;53.112;8.896;2022-08-18T09:57:40;19.60;;;15.00;;
5125;SDS011;2581;53.112;8.896;2022-08-18T10:13:24;16.13;;;10.33;;
5125;SDS011;2581;53.112;8.896;2022-08-18T10:16:17;21.87;;;10.67;;
5125;SDS011;2581;53.112;8.896;2022-08-18T10:21:24;11.30;;;8.77;;
5125;SDS011;2581;53.112;8.896;2022-08-18T10:27:09;13.90;;;10.60;;
5125;SDS011;2581;53.112;8.896;2022-08-18T10:42:17;8.07;;;7.27;;
5125;SDS011;2581;53.112;8.896;2022-08-18T10:44:51;13.00;;;8.50;;
5125;SDS011;2581;53.112;8.896;2022-08-18T10:47:28;22.83;;;11.60;;
5125;SDS011;2581;53.112;8.896;2022-08-18T10:49:55;18.10;;;11.10;;
5125;SDS011;2581;53.112;8.896;2022-08-18T10:52:33;10.90;;;9.03;;
5125;SDS011;2581;53.112;8.896;2022-08-18T10:55:36;10.70;;;8.53;;
5125;SDS011;2581;53.112;8.896;2022-08-18T11:04:24;10.87;;;8.80;;
5125;SDS011;2581;53.112;8.896;2022-08-18T11:07:13;11.00;;;7.90;;
5125;SDS011;2581;53.112;8.896;2022-08-18T11:09:44;9.97;;;6.60;;
5125;SDS011;2581;53.112;8.896;2022-08-18T11:12:13;12.70;;;8.53;;
5125;SDS011;2581;53.112;8.896;2022-08-18T11:17:36;7.30;;;6.40;;
5125;SDS011;2581;53.112;8.896;2022-08-18T11:20:26;6.03;;;4.50;;
5125;SDS011;2581;53.112;8.896;2022-08-18T11:22:56;10.40;;;6.10;;
5125;SDS011;2581;53.112;8.896;2022-08-18T11:25:31;7.83;;;5.13;;
5125;SDS011;2581;53.112;8.896;2022-08-18T11:27:59;6.30;;;4.80;;
5125;SDS011;2581;53.112;8.896;2022-08-18T11:30:31;10.47;;;5.17;;
5125;SDS011;2581;53.112;8.896;2022-08-18T11:33:01;4.17;;;3.80;;
5125;SDS011;2581;53.112;8.896;2022-08-18T11:35:29;5.03;;;4.33;;
5125;SDS011;2581;53.112;8.896;2022-08-18T11:38:01;4.57;;;4.20;;
5125;SDS011;2581;53.112;8.896;2022-08-18T11:40:36;7.90;;;4.10;;
5125;SDS011;2581;53.112;8.896;2022-08-18T11:43:13;6.83;;;4.57;;
5125;SDS011;2581;53.112;8.896;2022-08-18T11:45:56;5.10;;;4.27;;
5125;SDS011;2581;53.112;8.896;2022-08-18T12:01:29;8.20;;;5.67;;
5125;SDS011;2581;53.112;8.896;2022-08-18T12:06:38;4.30;;;3.90;;
5125;SDS011;2581;53.112;8.896;2022-08-18T12:09:14;4.50;;;4.20;;
5125;SDS011;2581;53.112;8.896;2022-08-18T12:14:22;6.50;;;4.73;;
5125;SDS011;2581;53.112;8.896;2022-08-18T12:16:49;12.00;;;4.50;;
5125;SDS011;2581;53.112;8.896;2022-08-18T12:19:16;8.03;;;4.80;;
5125;SDS011;2581;53.112;8.896;2022-08-18T12:26:47;5.90;;;4.13;;
5125;SDS011;2581;53.112;8.896;2022-08-18T12:29:14;4.63;;;4.23;;
5125;SDS011;2581;53.112;8.896;2022-08-18T12:31:42;5.67;;;5.17;;
5125;SDS011;2581;53.112;8.896;2022-08-18T12:34:11;4.20;;;3.80;;
5125;SDS011;2581;53.112;8.896;2022-08-18T12:36:37;4.60;;;4.20;;
5125;SDS011;2581;53.112;8.896;2022-08-18T12:39:03;8.83;;;4.87;;
5125;SDS011;2581;53.112;8.896;2022-08-18T12:41:29;4.20;;;3.90;;
5125;SDS011;2581;53.112;8.896;2022-08-18T12:43:55;6.33;;;4.70;;
5125;SDS011;2581;53.112;8.896;2022-08-18T12:46:21;8.90;;;4.83;;
5125;SDS011;2581;53.112;8.896;2022-08-18T12:48:47;5.53;;;5.03;;
5125;SDS011;2581;53.112;8.896;2022-08-18T12:51:14;6.40;;;3.97;;
5125;SDS011;2581;53.112;8.896;2022-08-18T12:53:40;5.37;;;4.87;;
5125;SDS011;2581;53.112;8.896;2022-08-18T12:56:06;8.33;;;4.67;;
5125;SDS011;2581;53.112;8.896;2022-08-18T12:58:40;5.33;;;4.50;;
5125;SDS011;2581;53.112;8.896;2022-08-18T13:01:06;4.77;;;4.30;;
5125;SDS011;2581;53.112;8.896;2022-08-18T13:03:31;5.80;;;5.13;;
5125;SDS011;2581;53.112;8.896;2022-08-18T13:05:57;4.20;;;3.90;;
5125;SDS011;2581;53.112;8.896;2022-08-18T13:08:24;6.80;;;4.67;;
5125;SDS011;2581;53.112;8.896;2022-08-18T13:10:49;6.83;;;4.37;;
5125;SDS011;2581;53.112;8.896;2022-08-18T13:13:16;8.63;;;4.67;;
5125;SDS011;2581;53.112;8.896;2022-08-18T13:15:43;7.53;;;4.73;;
5125;SDS011;2581;53.112;8.896;2022-08-18T13:18:11;7.00;;;4.33;;
5125;SDS011;2581;53.112;8.896;2022-08-18T13:20:38;6.73;;;4.70;;
5125;SDS011;2581;53.112;8.896;2022-08-18T13:23:05;5.13;;;4.23;;
5125;SDS011;2581;53.112;8.896;2022-08-18T13:25:30;6.20;;;4.83;;
5125;SDS011;2581;53.112;8.896;2022-08-18T13:27:56;7.47;;;5.10;;
5125;SDS011;2581;53.112;8.896;2022-08-18T13:30:23;10.97;;;4.73;;
5125;SDS011;2581;53.112;8.896;2022-08-18T13:32:49;7.93;;;5.10;;
5125;SDS011;2581;53.112;8.896;2022-08-18T13:35:15;5.87;;;4.20;;
5125;SDS011;2581;53.112;8.896;2022-08-18T13:37:40;6.80;;;4.40;;
5125;SDS011;2581;53.112;8.896;2022-08-18T13:40:09;4.90;;;4.37;;
5125;SDS011;2581;53.112;8.896;2022-08-18T13:42:44;12.37;;;4.90;;
5125;SDS011;2581;53.112;8.896;2022-08-18T13:45:13;6.10;;;4.17;;
5125;SDS011;2581;53.112;8.896;2022-08-18T13:47:41;10.23;;;5.10;;
5125;SDS011;2581;53.112;8.896;2022-08-18T13:50:08;9.90;;;4.20;;
5125;SDS011;2581;53.112;8.896;2022-08-18T13:52:35;5.43;;;3.77;;
5125;SDS011;2581;53.112;8.896;2022-08-18T13:55:03;9.40;;;4.63;;
5125;SDS011;2581;53.112;8.896;2022-08-18T13:57:30;5.00;;;3.10;;
5125;SDS011;2581;53.112;8.896;2022-08-18T13:59:56;4.30;;;3.30;;
5125;SDS011;2581;53.112;8.896;2022-08-18T14:02:22;5.40;;;3.70;;
5125;SDS011;2581;53.112;8.896;2022-08-18T14:04:48;4.67;;;3.80;;
5125;SDS011;2581;53.112;8.896;2022-08-18T14:07:14;8.13;;;3.80;;
5125;SDS011;2581;53.112;8.896;2022-08-18T14:09:41;6.70;;;3.80;;
5125;SDS011;2581;53.112;8.896;2022-08-18T14:12:15;5.10;;;3.90;;
5125;SDS011;2581;53.112;8.896;2022-08-18T14:14:45;8.70;;;4.00;;
5125;SDS011;2581;53.112;8.896;2022-08-18T14:17:11;5.60;;;3.70;;
5125;SDS011;2581;53.112;8.896;2022-08-18T14:19:37;6.73;;;3.43;;
5125;SDS011;2581;53.112;8.896;2022-08-18T14:22:21;7.67;;;3.37;;
5125;SDS011;2581;53.112;8.896;2022-08-18T14:25:06;7.50;;;4.40;;
5125;SDS011;2581;53.112;8.896;2022-08-18T14:27:50;9.20;;;4.10;;
5125;SDS011;2581;53.112;8.896;2022-08-18T14:30:16;9.27;;;3.50;;
5125;SDS011;2581;53.112;8.896;2022-08-18T14:32:43;5.57;;;3.77;;
5125;SDS011;2581;53.112;8.896;2022-08-18T14:35:09;5.97;;;3.97;;
5125;SDS011;2581;53.112;8.896;2022-08-18T14:37:37;6.53;;;3.97;;
5125;SDS011;2581;53.112;8.896;2022-08-18T14:40:04;4.63;;;3.63;;
5125;SDS011;2581;53.112;8.896;2022-08-18T14:42:31;10.20;;;4.00;;
5125;SDS011;2581;53.112;8.896;2022-08-18T14:44:58;7.90;;;3.80;;
5125;SDS011;2581;53.112;8.896;2022-08-18T14:47:24;6.43;;;3.43;;
5125;SDS011;2581;53.112;8.896;2022-08-18T14:49:53;9.53;;;4.20;;
5125;SDS011;2581;53.112;8.896;2022-08-18T14:52:21;10.03;;;4.10;;
5125;SDS011;2581;53.112;8.896;2022-08-18T14:54:47;8.20;;;4.03;;
5125;SDS011;2581;53.112;8.896;2022-08-18T14:57:14;4.13;;;3.57;;
5125;SDS011;2581;53.112;8.896;2022-08-18T14:59:40;5.63;;;3.87;;
5125;SDS011;2581;53.112;8.896;2022-08-18T15:02:07;7.60;;;3.77;;
5125;SDS011;2581;53.112;8.896;2022-08-18T15:04:34;9.40;;;4.20;;
5125;SDS011;2581;53.112;8.896;2022-08-18T15:07:00;4.20;;;3.30;;
5125;SDS011;2581;53.112;8.896;2022-08-18T15:09:26;5.80;;;3.33;;
5125;SDS011;2581;53.112;8.896;2022-08-18T15:11:57;9.80;;;3.73;;
5125;SDS011;2581;53.112;8.896;2022-08-18T15:14:24;7.17;;;4.00;;
5125;SDS011;2581;53.112;8.896;2022-08-18T15:16:51;4.30;;;3.90;;
5125;SDS011;2581;53.112;8.896;2022-08-18T15:19:17;3.80;;;3.40;;
5125;SDS011;2581;53.112;8.896;2022-08-18T15:21:42;6.07;;;3.10;;
5125;SDS011;2581;53.112;8.896;2022-08-18T15:24:26;6.90;;;4.40;;
5125;SDS011;2581;53.112;8.896;2022-08-18T15:27:10;7.77;;;4.23;;
5125;SDS011;2581;53.112;8.896;2022-08-18T15:29:36;14.20;;;4.67;;
5125;SDS011;2581;53.112;8.896;2022-08-18T15:32:02;7.07;;;4.53;;
5125;SDS011;2581;53.112;8.896;2022-08-18T15:34:28;9.20;;;4.10;;
5125;SDS011;2581;53.112;8.896;2022-08-18T15:36:54;14.63;;;3.90;;
5125;SDS011;2581;53.112;8.896;2022-08-18T15:39:21;8.37;;;5.03;;
5125;SDS011;2581;53.112;8.896;2022-08-18T15:41:47;7.80;;;4.47;;
5125;SDS011;2581;53.112;8.896;2022-08-18T15:44:14;7.37;;;4.10;;
5125;SDS011;2581;53.112;8.896;2022-08-18T15:46:42;6.90;;;3.90;;
5125;SDS011;2581;53.112;8.896;2022-08-18T15:49:08;7.53;;;3.90;;
5125;SDS011;2581;53.112;8.896;2022-08-18T15:51:34;7.30;;;4.27;;
5125;SDS011;2581;53.112;8.896;2022-08-18T15:54:02;6.87;;;4.40;;
5125;SDS011;2581;53.112;8.896;2022-08-18T15:56:28;8.83;;;4.70;;
5125;SDS011;2581;53.112;8.896;2022-08-18T15:58:55;5.67;;;4.27;;
5125;SDS011;2581;53.112;8.896;2022-08-18T16:01:22;5.70;;;4.50;;
5125;SDS011;2581;53.112;8.896;2022-08-18T16:03:49;8.13;;;4.53;;
5125;SDS011;2581;53.112;8.896;2022-08-18T16:06:21;7.77;;;4.30;;
5125;SDS011;2581;53.112;8.896;2022-08-18T16:08:48;8.30;;;4.77;;
5125;SDS011;2581;53.112;8.896;2022-08-18T16:11:15;6.10;;;4.40;;
5125;SDS011;2581;53.112;8.896;2022-08-18T16:13:43;5.20;;;4.33;;
5125;SDS011;2581;53.112;8.896;2022-08-18T16:16:13;5.20;;;4.67;;
5125;SDS011;2581;53.112;8.896;2022-08-18T16:18:44;7.20;;;4.33;;
5125;SDS011;2581;53.112;8.896;2022-08-18T16:21:11;4.13;;;3.70;;
5125;SDS011;2581;53.112;8.896;2022-08-18T16:23:43;7.77;;;4.97;;
5125;SDS011;2581;53.112;8.896;2022-08-18T16:26:13;4.60;;;4.10;;
5125;SDS011;2581;53.112;8.896;2022-08-18T16:28:43;6.30;;;3.90;;
5125;SDS011;2581;53.112;8.896;2022-08-18T16:31:14;3.70;;;3.40;;
5125;SDS011;2581;53.112;8.896;2022-08-18T16:33:43;4.20;;;3.20;;
5125;SDS011;2581;53.112;8.896;2022-08-18T16:36:10;5.63;;;3.80;;
5125;SDS011;2581;53.112;8.896;2022-08-18T16:38:38;7.20;;;4.53;;
5125;SDS011;2581;53.112;8.896;2022-08-18T16:41:08;7.83;;;4.13;;
5125;SDS011;2581;53.112;8.896;2022-08-18T16:43:39;6.20;;;4.43;;
5125;SDS011;2581;53.112;8.896;2022-08-18T16:46:25;4.93;;;4.03;;
5125;SDS011;2581;53.112;8.896;2022-08-18T16:48:52;6.70;;;4.50;;
5125;SDS011;2581;53.112;8.896;2022-08-18T16:51:21;7.63;;;4.43;;
5125;SDS011;2581;53.112;8.896;2022-08-18T16:53:49;6.30;;;4.17;;
5125;SDS011;2581;53.112;8.896;2022-08-18T16:56:18;5.93;;;4.80;;
5125;SDS011;2581;53.112;8.896;2022-08-18T16:58:46;5.20;;;4.40;;
5125;SDS011;2581;53.112;8.896;2022-08-18T17:01:30;7.63;;;4.40;;
5125;SDS011;2581;53.112;8.896;2022-08-18T17:04:20;4.67;;;3.63;;
5125;SDS011;2581;53.112;8.896;2022-08-18T17:06:53;6.63;;;4.17;;
5125;SDS011;2581;53.112;8.896;2022-08-18T17:09:23;6.00;;;4.77;;
5125;SDS011;2581;53.112;8.896;2022-08-18T17:11:49;6.40;;;3.87;;
5125;SDS011;2581;53.112;8.896;2022-08-18T17:14:15;4.97;;;4.20;;
5125;SDS011;2581;53.112;8.896;2022-08-18T17:16:42;4.53;;;4.10;;
5125;SDS011;2581;53.112;8.896;2022-08-18T17:19:09;5.30;;;4.13;;
5125;SDS011;2581;53.112;8.896;2022-08-18T17:21:35;8.30;;;4.30;;
5125;SDS011;2581;53.112;8.896;2022-08-18T17:24:03;5.90;;;3.83;;
5125;SDS011;2581;53.112;8.896;2022-08-18T17:29:04;9.90;;;3.87;;
5125;SDS011;2581;53.112;8.896;2022-08-18T17:31:36;8.60;;;4.10;;
5125;SDS011;2581;53.112;8.896;2022-08-18T17:34:07;5.73;;;4.30;;
5125;SDS011;2581;53.112;8.896;2022-08-18T17:36:37;7.33;;;4.40;;
5125;SDS011;2581;53.112;8.896;2022-08-18T17:39:13;6.27;;;4.40;;
5125;SDS011;2581;53.112;8.896;2022-08-18T17:41:41;4.20;;;3.80;;
5125;SDS011;2581;53.112;8.896;2022-08-18T17:44:30;6.80;;;3.80;;
5125;SDS011;2581;53.112;8.896;2022-08-18T17:46:58;5.63;;;3.23;;
5125;SDS011;2581;53.112;8.896;2022-08-18T17:49:28;4.17;;;3.43;;
5125;SDS011;2581;53.112;8.896;2022-08-18T17:52:20;5.50;;;3.77;;
5125;SDS011;2581;53.112;8.896;2022-08-18T17:54:49;3.73;;;3.20;;
5125;SDS011;2581;53.112;8.896;2022-08-18T17:57:27;4.10;;;3.40;;
5125;SDS011;2581;53.112;8.896;2022-08-18T18:00:13;5.63;;;3.70;;
5125;SDS011;2581;53.112;8.896;2022-08-18T18:02:42;4.03;;;3.30;;
5125;SDS011;2581;53.112;8.896;2022-08-18T18:05:16;8.17;;;3.50;;
5125;SDS011;2581;53.112;8.896;2022-08-18T18:15:49;4.10;;;3.40;;